createdAt,value
2017-04-30T00:00:41.121Z,2.57
2017-04-30T00:01:41.415Z,2.53
2017-04-30T00:02:41.399Z,2.42
2017-04-30T00:03:41.386Z,2.41
2017-04-30T00:04:41.070Z,2.35
2017-04-30T00:05:41.358Z,2.38
2017-04-30T00:06:41.345Z,2.38
2017-04-30T00:07:41.336Z,2.41
2017-04-30T00:08:41.319Z,2.39
2017-04-30T00:09:41.306Z,2.41
2017-04-30T00:10:41.331Z,2.41
2017-04-30T00:11:41.278Z,2.39
2017-04-30T00:12:41.264Z,2.41
2017-04-30T00:13:41.253Z,2.38
2017-04-30T00:14:41.239Z,2.39
2017-04-30T00:15:41.231Z,2.38
2017-04-30T00:16:41.221Z,2.41
2017-04-30T00:17:41.202Z,2.39
2017-04-30T00:18:41.194Z,2.34
2017-04-30T00:19:41.175Z,2.38
2017-04-30T00:20:41.157Z,2.36
2017-04-30T00:21:41.144Z,2.2
2017-04-30T00:22:41.146Z,2.3
2017-04-30T00:23:41.118Z,2.25
2017-04-30T00:24:41.107Z,2.23
2017-04-30T00:25:40.786Z,2.3
2017-04-30T00:26:41.087Z,2.27
2017-04-30T00:27:41.066Z,2.2
2017-04-30T00:28:40.749Z,2.21
2017-04-30T00:29:41.040Z,2.28
2017-04-30T00:30:41.029Z,2.2
2017-04-30T00:31:41.012Z,2.14
2017-04-30T00:32:40.997Z,2.21
2017-04-30T00:33:40.992Z,2.16
2017-04-30T00:34:40.969Z,2.16
2017-04-30T00:35:40.958Z,2.12
2017-04-30T00:36:40.942Z,2.16
2017-04-30T00:37:40.930Z,2.14
2017-04-30T00:38:40.613Z,2.07
2017-04-30T00:39:40.903Z,2.03
2017-04-30T00:40:40.589Z,2.12
2017-04-30T00:41:40.880Z,2.07
2017-04-30T00:42:40.861Z,2.06
2017-04-30T00:43:40.855Z,2.03
2017-04-30T00:44:40.837Z,2.06
2017-04-30T00:45:40.825Z,2.09
2017-04-30T00:46:40.806Z,2.05
2017-04-30T00:47:40.796Z,2.05
2017-04-30T00:48:40.781Z,2.09
2017-04-30T00:49:40.764Z,2.05
2017-04-30T00:50:40.757Z,2.1
2017-04-30T00:51:40.755Z,2
2017-04-30T00:52:40.731Z,2.03
2017-04-30T00:53:40.713Z,2
2017-04-30T00:54:40.698Z,1.99
2017-04-30T00:55:40.685Z,2.03
2017-04-30T00:56:40.673Z,1.98
2017-04-30T00:57:40.657Z,2.02
2017-04-30T00:58:40.651Z,1.93
2017-04-30T00:59:40.633Z,1.99
2017-04-30T01:00:40.619Z,2
2017-04-30T01:01:40.603Z,1.95
2017-04-30T01:02:40.596Z,1.88
2017-04-30T01:03:40.277Z,2
2017-04-30T01:04:40.574Z,1.98
2017-04-30T01:05:40.553Z,1.9
2017-04-30T01:06:40.536Z,1.95
2017-04-30T01:07:40.525Z,1.88
2017-04-30T01:08:40.510Z,1.91
2017-04-30T01:09:40.493Z,1.88
2017-04-30T01:10:40.482Z,1.9
2017-04-30T01:11:40.473Z,1.98
2017-04-30T01:12:40.453Z,1.9
2017-04-30T01:13:40.441Z,1.87
2017-04-30T01:14:40.432Z,1.88
2017-04-30T01:15:40.414Z,1.88
2017-04-30T01:16:40.398Z,1.88
2017-04-30T01:17:40.389Z,1.91
2017-04-30T01:18:40.068Z,1.87
2017-04-30T01:19:40.054Z,1.84
2017-04-30T01:20:40.345Z,1.88
2017-04-30T01:21:40.331Z,1.84
2017-04-30T01:22:40.316Z,1.8
2017-04-30T01:23:40.309Z,1.83
2017-04-30T01:24:40.293Z,1.86
2017-04-30T01:25:40.277Z,1.8
2017-04-30T01:26:40.611Z,1.83
2017-04-30T01:27:40.252Z,1.83
2017-04-30T01:28:40.239Z,1.81
2017-04-30T01:29:39.929Z,1.8
2017-04-30T01:30:39.907Z,1.83
2017-04-30T01:31:40.191Z,1.83
2017-04-30T01:32:40.181Z,1.76
2017-04-30T01:33:40.168Z,1.77
2017-04-30T01:34:40.155Z,1.81
2017-04-30T01:35:40.147Z,1.81
2017-04-30T01:36:40.395Z,1.77
2017-04-30T01:37:40.115Z,1.79
2017-04-30T01:38:40.099Z,1.8
2017-04-30T01:39:40.083Z,1.8
2017-04-30T01:40:39.773Z,1.73
2017-04-30T01:41:40.307Z,1.86
2017-04-30T01:42:40.044Z,1.81
2017-04-30T01:43:40.030Z,1.79
2017-04-30T01:44:39.709Z,1.79
2017-04-30T01:45:40.004Z,1.79
2017-04-30T01:46:40.286Z,1.72
2017-04-30T01:47:39.974Z,1.8
2017-04-30T01:48:39.974Z,1.81
2017-04-30T01:49:39.946Z,1.83
2017-04-30T01:50:39.934Z,1.83
2017-04-30T01:51:39.915Z,1.8
2017-04-30T01:52:39.904Z,1.76
2017-04-30T01:53:39.892Z,1.69
2017-04-30T01:54:39.876Z,1.8
2017-04-30T01:55:39.865Z,1.79
2017-04-30T01:56:40.103Z,1.73
2017-04-30T01:57:39.844Z,1.77
2017-04-30T01:58:39.822Z,1.76
2017-04-30T01:59:39.807Z,1.73
2017-04-30T02:00:39.793Z,1.8
2017-04-30T02:01:40.079Z,1.8
2017-04-30T02:02:39.769Z,1.73
2017-04-30T02:03:39.755Z,1.79
2017-04-30T02:04:39.436Z,1.76
2017-04-30T02:05:39.726Z,1.72
2017-04-30T02:06:39.993Z,1.81
2017-04-30T02:07:39.699Z,1.76
2017-04-30T02:08:39.684Z,1.72
2017-04-30T02:09:39.669Z,1.66
2017-04-30T02:10:39.693Z,1.76
2017-04-30T02:11:39.892Z,1.76
2017-04-30T02:12:39.630Z,1.73
2017-04-30T02:13:39.008Z,1.72
2017-04-30T02:14:39.599Z,1.81
2017-04-30T02:15:39.017Z,1.76
2017-04-30T02:16:39.871Z,1.76
2017-04-30T02:17:39.258Z,1.76
2017-04-30T02:18:39.548Z,1.8
2017-04-30T02:19:39.229Z,1.77
2017-04-30T02:20:39.211Z,1.72
2017-04-30T02:21:39.802Z,1.77
2017-04-30T02:22:39.186Z,1.76
2017-04-30T02:23:39.473Z,1.72
2017-04-30T02:24:39.465Z,1.73
2017-04-30T02:25:39.449Z,1.7
2017-04-30T02:26:39.681Z,1.73
2017-04-30T02:27:39.117Z,1.77
2017-04-30T02:28:39.404Z,1.73
2017-04-30T02:29:39.394Z,1.73
2017-04-30T02:30:39.376Z,1.86
2017-04-30T02:31:39.714Z,1.79
2017-04-30T02:32:39.046Z,1.81
2017-04-30T02:33:39.338Z,1.79
2017-04-30T02:34:39.325Z,1.79
2017-04-30T02:35:39.308Z,1.8
2017-04-30T02:36:39.545Z,1.79
2017-04-30T02:37:39.279Z,1.83
2017-04-30T02:38:39.268Z,1.8
2017-04-30T02:39:39.253Z,1.81
2017-04-30T02:40:39.237Z,1.76
2017-04-30T02:41:39.475Z,1.79
2017-04-30T02:42:39.213Z,1.8
2017-04-30T02:43:39.197Z,1.83
2017-04-30T02:44:39.183Z,1.79
2017-04-30T02:45:39.171Z,1.81
2017-04-30T02:46:38.852Z,1.79
2017-04-30T02:47:39.143Z,1.73
2017-04-30T02:48:39.131Z,1.76
2017-04-30T02:49:39.112Z,1.81
2017-04-30T02:50:38.795Z,1.8
2017-04-30T02:51:39.121Z,1.81
2017-04-30T02:52:39.070Z,1.84
2017-04-30T02:53:39.066Z,1.91
2017-04-30T02:54:39.046Z,1.86
2017-04-30T02:55:39.029Z,1.83
2017-04-30T02:56:39.023Z,1.87
2017-04-30T02:57:38.700Z,1.86
2017-04-30T02:58:38.994Z,1.84
2017-04-30T02:59:38.674Z,1.86
2017-04-30T03:00:38.656Z,1.83
2017-04-30T03:01:38.951Z,1.84
2017-04-30T03:02:38.631Z,1.76
2017-04-30T03:03:38.622Z,1.76
2017-04-30T03:04:38.911Z,1.83
2017-04-30T03:05:38.587Z,1.83
2017-04-30T03:06:38.884Z,1.8
2017-04-30T03:07:38.874Z,1.79
2017-04-30T03:08:38.866Z,1.73
2017-04-30T03:09:38.834Z,1.76
2017-04-30T03:10:38.832Z,1.8
2017-04-30T03:11:38.504Z,1.81
2017-04-30T03:12:38.795Z,1.8
2017-04-30T03:13:38.782Z,1.8
2017-04-30T03:14:38.470Z,1.83
2017-04-30T03:15:38.755Z,1.88
2017-04-30T03:16:38.740Z,1.91
2017-04-30T03:17:38.723Z,1.95
2017-04-30T03:18:38.106Z,2.02
2017-04-30T03:19:38.391Z,1.88
2017-04-30T03:20:38.685Z,2.03
2017-04-30T03:21:38.670Z,1.91
2017-04-30T03:22:38.652Z,1.93
2017-04-30T03:23:38.642Z,2
2017-04-30T03:24:38.627Z,1.98
2017-04-30T03:25:38.311Z,1.91
2017-04-30T03:26:38.295Z,1.91
2017-04-30T03:27:38.587Z,1.9
2017-04-30T03:28:38.573Z,1.91
2017-04-30T03:29:38.255Z,1.9
2017-04-30T03:30:38.241Z,1.86
2017-04-30T03:31:38.222Z,1.87
2017-04-30T03:32:38.814Z,1.88
2017-04-30T03:33:38.503Z,1.91
2017-04-30T03:34:38.489Z,1.88
2017-04-30T03:35:38.472Z,1.88
2017-04-30T03:36:38.460Z,1.9
2017-04-30T03:37:38.395Z,1.9
2017-04-30T03:38:38.432Z,1.91
2017-04-30T03:39:38.415Z,1.9
2017-04-30T03:40:38.401Z,1.9
2017-04-30T03:41:38.393Z,1.98
2017-04-30T03:42:38.676Z,1.93
2017-04-30T03:43:38.361Z,2.02
2017-04-30T03:44:38.354Z,2
2017-04-30T03:45:38.333Z,1.95
2017-04-30T03:46:38.323Z,2.05
2017-04-30T03:47:38.259Z,2.07
2017-04-30T03:48:38.300Z,2.02
2017-04-30T03:49:38.279Z,1.98
2017-04-30T03:50:38.267Z,2.03
2017-04-30T03:51:38.253Z,2.06
2017-04-30T03:52:38.498Z,2.07
2017-04-30T03:53:38.231Z,2.07
2017-04-30T03:54:38.210Z,2.07
2017-04-30T03:55:38.197Z,2.1
2017-04-30T03:56:38.181Z,2.05
2017-04-30T03:57:38.470Z,2.09
2017-04-30T03:58:38.160Z,2.12
2017-04-30T03:59:38.142Z,2.12
2017-04-30T04:00:38.126Z,2.07
2017-04-30T04:01:38.114Z,2.23
2017-04-30T04:02:38.350Z,2.2
2017-04-30T04:03:38.091Z,2.18
2017-04-30T04:04:38.072Z,2.18
2017-04-30T04:05:38.061Z,2.24
2017-04-30T04:06:38.047Z,2.27
2017-04-30T04:07:38.284Z,2.27
2017-04-30T04:08:38.023Z,2.28
2017-04-30T04:09:38.005Z,2.36
2017-04-30T04:10:37.996Z,2.34
2017-04-30T04:11:37.975Z,2.36
2017-04-30T04:12:38.264Z,2.38
2017-04-30T04:13:37.955Z,2.48
2017-04-30T04:14:37.937Z,2.59
2017-04-30T04:15:37.927Z,2.74
2017-04-30T04:16:37.911Z,2.87
2017-04-30T04:17:38.150Z,3.08
2017-04-30T04:18:37.887Z,3.28
2017-04-30T04:19:37.875Z,3.43
2017-04-30T04:20:37.858Z,3.72
2017-04-30T04:21:37.844Z,3.97
2017-04-30T04:22:37.781Z,4.2
2017-04-30T04:23:37.824Z,4.47
2017-04-30T04:24:37.813Z,4.62
2017-04-30T04:25:37.797Z,4.96
2017-04-30T04:26:37.789Z,5.27
2017-04-30T04:27:38.127Z,5.54
2017-04-30T04:28:37.764Z,5.86
2017-04-30T04:29:37.752Z,6.09
2017-04-30T04:30:37.749Z,6.3
2017-04-30T04:31:37.729Z,6.55
2017-04-30T04:32:37.722Z,6.8
2017-04-30T04:33:37.711Z,7.13
2017-04-30T04:34:37.704Z,7.21
2017-04-30T04:35:37.692Z,7.52
2017-04-30T04:36:37.684Z,7.83
2017-04-30T04:37:37.676Z,8.12
2017-04-30T04:38:37.668Z,8.53
2017-04-30T04:39:37.656Z,8.68
2017-04-30T04:40:37.649Z,8.96
2017-04-30T04:41:37.642Z,9.13
2017-04-30T04:42:37.636Z,9.46
2017-04-30T04:43:37.629Z,9.74
2017-04-30T04:44:37.619Z,9.91
2017-04-30T04:45:37.307Z,10.2
2017-04-30T04:46:37.602Z,10.48
2017-04-30T04:47:37.603Z,10.7
2017-04-30T04:48:37.289Z,10.88
2017-04-30T04:49:37.281Z,11.18
2017-04-30T04:50:37.577Z,11.28
2017-04-30T04:51:37.574Z,11.47
2017-04-30T04:52:37.570Z,11.72
2017-04-30T04:53:37.816Z,11.98
2017-04-30T04:54:37.558Z,12.04
2017-04-30T04:55:37.558Z,12.21
2017-04-30T04:56:37.547Z,12.45
2017-04-30T04:57:37.548Z,12.59
2017-04-30T04:58:37.839Z,12.86
2017-04-30T04:59:37.534Z,13.03
2017-04-30T05:00:37.532Z,13.15
2017-04-30T05:01:37.528Z,13.46
2017-04-30T05:02:37.526Z,13.63
2017-04-30T05:03:37.774Z,13.82
2017-04-30T05:04:37.516Z,14.1
2017-04-30T05:05:37.511Z,14.27
2017-04-30T05:06:37.543Z,14.37
2017-04-30T05:07:37.517Z,14.46
2017-04-30T05:08:37.807Z,14.58
2017-04-30T05:09:37.509Z,14.84
2017-04-30T05:10:37.504Z,14.89
2017-04-30T05:11:37.198Z,15.2
2017-04-30T05:12:37.504Z,15.36
2017-04-30T05:13:37.754Z,15.51
2017-04-30T05:14:37.500Z,15.64
2017-04-30T05:15:37.496Z,15.82
2017-04-30T05:16:37.500Z,15.9
2017-04-30T05:17:37.521Z,16
2017-04-30T05:18:37.759Z,15.97
2017-04-30T05:19:37.183Z,16.08
2017-04-30T05:20:37.491Z,16.21
2017-04-30T05:21:37.492Z,16.27
2017-04-30T05:22:37.489Z,16.33
2017-04-30T05:23:37.740Z,16.42
2017-04-30T05:24:37.489Z,16.7
2017-04-30T05:25:37.487Z,16.86
2017-04-30T05:26:37.488Z,17.01
2017-04-30T05:27:37.494Z,17.06
2017-04-30T05:28:37.736Z,17.15
2017-04-30T05:29:37.488Z,17.12
2017-04-30T05:30:37.492Z,17.3
2017-04-30T05:31:37.487Z,17.3
2017-04-30T05:32:37.494Z,17.23
2017-04-30T05:33:37.787Z,17.4
2017-04-30T05:34:37.490Z,17.36
2017-04-30T05:35:37.183Z,17.4
2017-04-30T05:36:37.494Z,17.49
2017-04-30T05:37:37.493Z,17.43
2017-04-30T05:38:37.789Z,17.46
2017-04-30T05:39:37.496Z,17.38
2017-04-30T05:40:37.499Z,17.38
2017-04-30T05:41:37.494Z,17.46
2017-04-30T05:42:37.500Z,17.49
2017-04-30T05:43:37.797Z,17.71
2017-04-30T05:44:37.493Z,17.63
2017-04-30T05:45:37.494Z,17.63
2017-04-30T05:46:37.496Z,17.77
2017-04-30T05:47:37.501Z,17.89
2017-04-30T05:48:37.751Z,18.14
2017-04-30T05:49:37.499Z,18.33
2017-04-30T05:50:37.505Z,18.55
2017-04-30T05:51:37.506Z,18.62
2017-04-30T05:52:37.205Z,18.73
2017-04-30T05:53:37.861Z,18.72
2017-04-30T05:54:37.516Z,18.69
2017-04-30T05:55:37.515Z,18.55
2017-04-30T05:56:37.516Z,18.5
2017-04-30T05:57:37.524Z,18.48
2017-04-30T05:58:37.470Z,18.51
2017-04-30T05:59:37.526Z,18.52
2017-04-30T06:00:37.527Z,18.58
2017-04-30T06:01:37.533Z,18.58
2017-04-30T06:02:37.539Z,18.57
2017-04-30T06:03:37.843Z,18.5
2017-04-30T06:04:37.542Z,18.39
2017-04-30T06:05:37.548Z,18.48
2017-04-30T06:06:37.553Z,18.54
2017-04-30T06:07:37.553Z,18.7
2017-04-30T06:08:37.808Z,18.88
2017-04-30T06:09:37.561Z,18.98
2017-04-30T06:10:37.563Z,19.02
2017-04-30T06:11:37.570Z,19.31
2017-04-30T06:12:37.578Z,19.59
2017-04-30T06:13:37.830Z,19.68
2017-04-30T06:14:37.579Z,19.63
2017-04-30T06:15:37.583Z,19.48
2017-04-30T06:16:37.592Z,19.36
2017-04-30T06:17:37.294Z,19.4
2017-04-30T06:18:37.850Z,19.44
2017-04-30T06:19:37.002Z,19.51
2017-04-30T06:20:37.609Z,19.73
2017-04-30T06:21:37.613Z,19.8
2017-04-30T06:22:37.617Z,20.08
2017-04-30T06:23:37.875Z,20.26
2017-04-30T06:24:37.630Z,20.39
2017-04-30T06:25:37.634Z,20.41
2017-04-30T06:26:37.649Z,20.32
2017-04-30T06:27:37.647Z,20.41
2017-04-30T06:28:37.905Z,20.57
2017-04-30T06:29:37.659Z,20.74
2017-04-30T06:30:37.675Z,20.84
2017-04-30T06:31:37.672Z,20.79
2017-04-30T06:32:37.681Z,20.72
2017-04-30T06:33:37.684Z,20.69
2017-04-30T06:34:37.695Z,20.59
2017-04-30T06:35:37.696Z,20.52
2017-04-30T06:36:37.704Z,20.5
2017-04-30T06:37:37.723Z,20.52
2017-04-30T06:38:37.979Z,20.58
2017-04-30T06:39:37.729Z,20.73
2017-04-30T06:40:37.738Z,20.8
2017-04-30T06:41:37.745Z,20.87
2017-04-30T06:42:37.759Z,21.03
2017-04-30T06:43:38.059Z,21.1
2017-04-30T06:44:37.764Z,21.16
2017-04-30T06:45:37.772Z,21.21
2017-04-30T06:46:37.780Z,21.38
2017-04-30T06:47:37.789Z,21.52
2017-04-30T06:48:38.046Z,21.46
2017-04-30T06:49:37.805Z,21.42
2017-04-30T06:50:37.811Z,21.37
2017-04-30T06:51:37.817Z,21.46
2017-04-30T06:52:37.828Z,21.54
2017-04-30T06:53:38.086Z,21.47
2017-04-30T06:54:37.844Z,21.47
2017-04-30T06:55:37.852Z,21.34
2017-04-30T06:56:37.858Z,21.35
2017-04-30T06:57:37.867Z,21.31
2017-04-30T06:58:38.127Z,21.4
2017-04-30T06:59:37.883Z,21.59
2017-04-30T07:00:37.590Z,21.84
2017-04-30T07:01:37.899Z,21.9
2017-04-30T07:02:37.608Z,22.06
2017-04-30T07:03:37.917Z,22.18
2017-04-30T07:04:37.927Z,22.36
2017-04-30T07:05:37.935Z,22.52
2017-04-30T07:06:37.944Z,22.45
2017-04-30T07:07:37.949Z,22.51
2017-04-30T07:08:38.270Z,22.61
2017-04-30T07:09:37.969Z,22.42
2017-04-30T07:10:37.975Z,22.22
2017-04-30T07:11:37.986Z,22.07
2017-04-30T07:12:37.994Z,21.9
2017-04-30T07:13:38.254Z,21.53
2017-04-30T07:14:38.010Z,21.35
2017-04-30T07:15:38.021Z,21.31
2017-04-30T07:16:38.029Z,21.12
2017-04-30T07:17:38.041Z,21.1
2017-04-30T07:18:38.305Z,21.03
2017-04-30T07:19:38.062Z,21.01
2017-04-30T07:20:38.061Z,20.84
2017-04-30T07:21:38.074Z,20.77
2017-04-30T07:22:38.076Z,20.84
2017-04-30T07:23:38.389Z,20.82
2017-04-30T07:24:37.793Z,20.84
2017-04-30T07:25:38.104Z,20.59
2017-04-30T07:26:37.810Z,20.69
2017-04-30T07:27:37.821Z,20.69
2017-04-30T07:28:38.177Z,21.01
2017-04-30T07:29:38.135Z,20.95
2017-04-30T07:30:38.145Z,21.12
2017-04-30T07:31:38.152Z,21.21
2017-04-30T07:32:38.162Z,21.17
2017-04-30T07:33:38.420Z,21.07
2017-04-30T07:34:38.174Z,20.99
2017-04-30T07:35:38.182Z,20.8
2017-04-30T07:36:38.190Z,20.59
2017-04-30T07:37:37.896Z,20.35
2017-04-30T07:38:38.521Z,20.36
2017-04-30T07:39:38.217Z,20.35
2017-04-30T07:40:38.226Z,20.38
2017-04-30T07:41:38.233Z,20.38
2017-04-30T07:42:38.266Z,20.5
2017-04-30T07:43:38.502Z,20.54
2017-04-30T07:44:38.256Z,20.76
2017-04-30T07:45:38.268Z,20.89
2017-04-30T07:46:38.271Z,21.12
2017-04-30T07:47:38.285Z,21.34
2017-04-30T07:48:38.595Z,21.58
2017-04-30T07:49:38.299Z,21.84
2017-04-30T07:50:38.306Z,22.1
2017-04-30T07:51:38.318Z,22.24
2017-04-30T07:52:38.327Z,22.4
2017-04-30T07:53:38.587Z,22.45
2017-04-30T07:54:38.346Z,22.52
2017-04-30T07:55:38.390Z,22.46
2017-04-30T07:56:38.368Z,22.36
2017-04-30T07:57:38.376Z,22.1
2017-04-30T07:58:38.689Z,22.03
2017-04-30T07:59:38.395Z,21.82
2017-04-30T08:00:38.412Z,21.75
2017-04-30T08:01:38.417Z,21.72
2017-04-30T08:02:38.442Z,21.72
2017-04-30T08:03:38.799Z,21.64
2017-04-30T08:04:38.450Z,21.43
2017-04-30T08:05:38.458Z,21.19
2017-04-30T08:06:38.472Z,20.95
2017-04-30T08:07:38.485Z,20.58
2017-04-30T08:08:38.743Z,20.5
2017-04-30T08:09:38.212Z,20.36
2017-04-30T08:10:38.511Z,20.42
2017-04-30T08:11:38.528Z,20.42
2017-04-30T08:12:38.534Z,20.28
2017-04-30T08:13:38.849Z,20.29
2017-04-30T08:14:38.551Z,20.23
2017-04-30T08:15:38.563Z,20.17
2017-04-30T08:16:38.569Z,20.08
2017-04-30T08:17:38.619Z,19.92
2017-04-30T08:18:38.950Z,19.94
2017-04-30T08:19:38.598Z,19.81
2017-04-30T08:20:38.615Z,19.58
2017-04-30T08:21:38.617Z,19.31
2017-04-30T08:22:38.626Z,18.98
2017-04-30T08:23:38.884Z,18.81
2017-04-30T08:24:38.641Z,18.69
2017-04-30T08:25:38.648Z,18.52
2017-04-30T08:26:38.357Z,18.42
2017-04-30T08:27:38.666Z,18.37
2017-04-30T08:28:39.027Z,18.41
2017-04-30T08:29:38.375Z,18.37
2017-04-30T08:30:38.687Z,18.36
2017-04-30T08:31:38.695Z,18.18
2017-04-30T08:32:38.709Z,17.86
2017-04-30T08:33:38.964Z,17.7
2017-04-30T08:34:38.716Z,17.44
2017-04-30T08:35:38.722Z,17.11
2017-04-30T08:36:38.736Z,17.03
2017-04-30T08:37:38.737Z,16.79
2017-04-30T08:38:38.994Z,16.73
2017-04-30T08:39:38.744Z,16.43
2017-04-30T08:40:38.751Z,16.27
2017-04-30T08:41:38.754Z,16.04
2017-04-30T08:42:38.760Z,15.89
2017-04-30T08:43:39.066Z,15.62
2017-04-30T08:44:38.763Z,15.43
2017-04-30T08:45:38.765Z,15.31
2017-04-30T08:46:38.770Z,15.19
2017-04-30T08:47:38.769Z,14.99
2017-04-30T08:50:38.766Z,14.61
2017-04-30T08:51:38.780Z,14.47
2017-04-30T08:52:38.765Z,14.28
2017-04-30T08:54:40.274Z,14.06
2017-04-30T08:57:38.450Z,13.52
2017-04-30T08:58:38.755Z,13.52
2017-04-30T08:59:38.992Z,13.42
2017-04-30T09:00:38.742Z,13.39
2017-04-30T09:01:38.738Z,13.22
2017-04-30T09:03:38.726Z,13.14
2017-04-30T09:04:39.075Z,13.12
2017-04-30T09:05:38.719Z,13.01
2017-04-30T09:06:38.714Z,13.04
2017-04-30T09:07:38.416Z,13.01
2017-04-30T09:08:38.716Z,12.85
2017-04-30T09:09:39.003Z,12.75
2017-04-30T09:10:38.699Z,12.72
2017-04-30T09:11:38.390Z,12.74
2017-04-30T09:12:38.384Z,12.74
2017-04-30T09:13:38.685Z,12.7
2017-04-30T09:14:38.927Z,12.6
2017-04-30T09:15:38.670Z,12.59
2017-04-30T09:16:38.704Z,12.53
2017-04-30T09:17:38.663Z,12.62
2017-04-30T09:18:38.659Z,12.56
2017-04-30T09:19:38.905Z,12.46
2017-04-30T09:20:38.648Z,12.46
2017-04-30T09:21:38.643Z,12.47
2017-04-30T09:22:38.633Z,12.5
2017-04-30T09:23:38.632Z,12.45
2017-04-30T09:24:38.875Z,12.52
2017-04-30T09:25:38.619Z,12.5
2017-04-30T09:26:38.614Z,12.49
2017-04-30T09:27:38.611Z,12.52
2017-04-30T09:28:38.603Z,12.57
2017-04-30T09:29:38.855Z,12.57
2017-04-30T09:30:38.598Z,12.59
2017-04-30T09:31:38.593Z,12.47
2017-04-30T09:32:38.588Z,12.5
2017-04-30T09:33:38.579Z,12.56
2017-04-30T09:34:38.921Z,12.6
2017-04-30T09:35:38.568Z,12.6
2017-04-30T09:36:38.560Z,12.65
2017-04-30T09:37:38.556Z,12.68
2017-04-30T09:38:38.549Z,12.68
2017-04-30T09:39:38.845Z,12.64
2017-04-30T09:40:38.234Z,12.67
2017-04-30T09:41:38.238Z,12.62
2017-04-30T09:42:38.528Z,12.65
2017-04-30T09:43:38.221Z,12.6
2017-04-30T09:44:38.767Z,12.68
2017-04-30T09:45:38.512Z,12.62
2017-04-30T09:46:38.203Z,12.65
2017-04-30T09:47:38.501Z,12.65
2017-04-30T09:48:38.193Z,12.59
2017-04-30T09:49:38.436Z,12.57
2017-04-30T09:50:38.182Z,12.49
2017-04-30T09:51:38.179Z,12.49
2017-04-30T09:52:38.174Z,12.52
2017-04-30T09:53:38.470Z,12.47
2017-04-30T09:54:38.716Z,12.47
2017-04-30T09:55:38.154Z,12.46
2017-04-30T09:56:38.147Z,12.45
2017-04-30T09:57:38.143Z,12.45
2017-04-30T09:58:38.136Z,12.49
2017-04-30T09:59:38.383Z,12.46
2017-04-30T10:00:38.129Z,12.5
2017-04-30T10:01:38.117Z,12.49
2017-04-30T10:02:38.421Z,12.46
2017-04-30T10:03:38.420Z,12.32
2017-04-30T10:04:38.103Z,12.38
2017-04-30T10:05:38.408Z,12.46
2017-04-30T10:06:38.398Z,12.42
2017-04-30T10:07:38.387Z,12.54
2017-04-30T10:08:38.082Z,12.54
2017-04-30T10:09:38.379Z,12.56
2017-04-30T10:10:37.768Z,12.56
2017-04-30T10:11:38.367Z,12.68
2017-04-30T10:12:38.399Z,12.6
2017-04-30T10:13:38.359Z,12.59
2017-04-30T10:14:38.379Z,12.68
2017-04-30T10:15:38.345Z,12.65
2017-04-30T10:16:38.341Z,12.68
2017-04-30T10:17:38.034Z,12.64
2017-04-30T10:18:38.328Z,12.68
2017-04-30T10:19:38.322Z,12.7
2017-04-30T10:20:38.313Z,12.7
2017-04-30T10:21:38.316Z,12.72
2017-04-30T10:22:38.306Z,12.72
2017-04-30T10:23:38.302Z,12.74
2017-04-30T10:24:37.990Z,12.83
2017-04-30T10:25:38.591Z,12.86
2017-04-30T10:26:38.281Z,13.03
2017-04-30T10:27:38.279Z,13.04
2017-04-30T10:28:38.270Z,13.1
2017-04-30T10:29:38.267Z,13.2
2017-04-30T10:30:38.560Z,13.17
2017-04-30T10:31:38.260Z,13.25
2017-04-30T10:32:38.257Z,13.2
2017-04-30T10:33:38.264Z,13.2
2017-04-30T10:34:38.240Z,13.14
2017-04-30T10:35:38.181Z,13.19
2017-04-30T10:36:38.232Z,13.19
2017-04-30T10:37:38.231Z,13.12
2017-04-30T10:38:38.219Z,13.26
2017-04-30T10:39:38.269Z,13.23
2017-04-30T10:40:38.495Z,13.14
2017-04-30T10:41:38.201Z,13.28
2017-04-30T10:42:38.199Z,13.23
2017-04-30T10:43:38.195Z,13.32
2017-04-30T10:44:37.888Z,13.23
2017-04-30T10:45:38.431Z,13.23
2017-04-30T10:46:37.874Z,13.26
2017-04-30T10:47:38.176Z,13.26
2017-04-30T10:48:38.166Z,13.2
2017-04-30T10:49:38.161Z,13.28
2017-04-30T10:50:38.454Z,13.19
2017-04-30T10:51:38.153Z,13.17
2017-04-30T10:52:38.147Z,13.22
2017-04-30T10:53:38.149Z,13.12
2017-04-30T10:54:38.138Z,13.14
2017-04-30T10:55:38.381Z,13.12
2017-04-30T10:56:38.128Z,13.25
2017-04-30T10:57:38.126Z,13.38
2017-04-30T10:58:37.813Z,13.41
2017-04-30T10:59:38.109Z,13.46
2017-04-30T11:00:38.453Z,13.41
2017-04-30T11:01:38.100Z,13.46
2017-04-30T11:02:38.095Z,13.54
2017-04-30T11:03:38.087Z,13.49
2017-04-30T11:04:38.082Z,13.54
2017-04-30T11:05:38.127Z,13.63
2017-04-30T11:06:38.072Z,13.63
2017-04-30T11:07:38.068Z,13.63
2017-04-30T11:08:38.061Z,13.63
2017-04-30T11:09:38.061Z,13.69
2017-04-30T11:10:37.999Z,13.7
2017-04-30T11:11:38.053Z,13.7
2017-04-30T11:12:38.050Z,13.84
2017-04-30T11:13:38.038Z,13.85
2017-04-30T11:14:38.029Z,13.91
2017-04-30T11:15:38.325Z,13.91
2017-04-30T11:16:38.030Z,13.88
2017-04-30T11:17:38.018Z,13.99
2017-04-30T11:18:38.015Z,14.06
2017-04-30T11:19:38.009Z,14.04
2017-04-30T11:20:38.250Z,14.09
2017-04-30T11:21:37.996Z,14.14
2017-04-30T11:22:37.689Z,14.18
2017-04-30T11:23:37.985Z,14.18
2017-04-30T11:24:37.983Z,14.25
2017-04-30T11:25:38.277Z,14.2
2017-04-30T11:26:37.972Z,14.17
2017-04-30T11:27:37.670Z,14.17
2017-04-30T11:28:37.960Z,14.22
2017-04-30T11:29:37.956Z,14.25
2017-04-30T11:30:38.202Z,14.29
2017-04-30T11:31:37.945Z,14.24
2017-04-30T11:32:37.944Z,14.36
2017-04-30T11:33:37.940Z,14.25
2017-04-30T11:34:37.934Z,14.29
2017-04-30T11:35:38.226Z,14.46
2017-04-30T11:36:37.927Z,14.45
2017-04-30T11:37:37.920Z,14.39
2017-04-30T11:38:37.913Z,14.42
2017-04-30T11:39:37.908Z,14.43
2017-04-30T11:40:37.851Z,14.43
2017-04-30T11:41:37.597Z,14.37
2017-04-30T11:42:37.893Z,14.25
2017-04-30T11:43:37.889Z,14.32
2017-04-30T11:44:37.597Z,14.33
2017-04-30T11:45:37.929Z,14.39
2017-04-30T11:46:37.874Z,14.22
2017-04-30T11:47:37.871Z,14.2
2017-04-30T11:48:37.871Z,14.17
2017-04-30T11:49:37.859Z,14.1
2017-04-30T11:50:38.106Z,14.17
2017-04-30T11:51:37.847Z,14
2017-04-30T11:52:37.845Z,13.97
2017-04-30T11:53:37.845Z,14
2017-04-30T11:54:37.834Z,13.88
2017-04-30T11:55:38.083Z,13.88
2017-04-30T11:56:37.826Z,13.85
2017-04-30T11:57:37.820Z,13.85
2017-04-30T11:58:37.821Z,13.88
2017-04-30T11:59:37.813Z,13.84
2017-04-30T12:00:38.060Z,13.87
2017-04-30T12:01:37.801Z,13.85
2017-04-30T12:02:37.794Z,13.87
2017-04-30T12:03:37.788Z,13.84
2017-04-30T12:04:37.785Z,13.88
2017-04-30T12:05:38.078Z,13.87
2017-04-30T12:06:37.776Z,13.79
2017-04-30T12:07:37.769Z,13.73
2017-04-30T12:08:37.768Z,13.73
2017-04-30T12:09:37.760Z,13.7
2017-04-30T12:10:38.057Z,13.69
2017-04-30T12:11:37.749Z,13.63
2017-04-30T12:12:37.743Z,13.62
2017-04-30T12:13:37.435Z,13.62
2017-04-30T12:14:37.735Z,13.64
2017-04-30T12:15:37.672Z,13.63
2017-04-30T12:16:37.721Z,13.6
2017-04-30T12:17:37.720Z,13.6
2017-04-30T12:18:37.717Z,13.57
2017-04-30T12:19:37.740Z,13.63
2017-04-30T12:20:37.698Z,13.59
2017-04-30T12:21:37.694Z,13.71
2017-04-30T12:22:37.689Z,13.66
2017-04-30T12:23:37.689Z,13.7
2017-04-30T12:24:37.592Z,13.75
2017-04-30T12:25:37.624Z,13.79
2017-04-30T12:26:37.666Z,13.77
2017-04-30T12:27:37.665Z,13.88
2017-04-30T12:28:37.661Z,13.87
2017-04-30T12:29:37.654Z,13.88
2017-04-30T12:30:37.594Z,13.81
2017-04-30T12:31:37.640Z,13.88
2017-04-30T12:32:37.638Z,13.82
2017-04-30T12:33:37.641Z,13.84
2017-04-30T12:34:37.627Z,13.82
2017-04-30T12:35:37.970Z,13.84
2017-04-30T12:36:37.615Z,13.88
2017-04-30T12:37:37.609Z,13.82
2017-04-30T12:38:37.607Z,13.82
2017-04-30T12:39:37.603Z,13.85
2017-04-30T12:40:37.843Z,13.73
2017-04-30T12:41:37.587Z,13.87
2017-04-30T12:42:37.279Z,13.77
2017-04-30T12:43:37.579Z,13.69
2017-04-30T12:44:37.573Z,13.69
2017-04-30T12:45:37.561Z,13.57
2017-04-30T12:46:37.561Z,13.59
2017-04-30T12:47:37.560Z,13.63
2017-04-30T12:48:37.553Z,13.67
2017-04-30T12:49:37.545Z,13.66
2017-04-30T12:50:37.787Z,13.63
2017-04-30T12:51:37.532Z,13.62
2017-04-30T12:52:37.530Z,13.62
2017-04-30T12:53:37.523Z,13.59
2017-04-30T12:54:37.516Z,13.64
2017-04-30T12:55:37.863Z,13.6
2017-04-30T12:56:37.504Z,13.66
2017-04-30T12:57:37.196Z,13.67
2017-04-30T12:58:37.498Z,13.66
2017-04-30T12:59:37.498Z,13.66
2017-04-30T13:00:37.733Z,13.71
2017-04-30T13:01:37.478Z,13.71
2017-04-30T13:02:37.477Z,13.73
2017-04-30T13:03:37.470Z,13.7
2017-04-30T13:04:37.460Z,13.78
2017-04-30T13:05:37.708Z,13.79
2017-04-30T13:06:37.452Z,13.73
2017-04-30T13:07:37.142Z,13.73
2017-04-30T13:08:37.448Z,13.78
2017-04-30T13:09:37.434Z,13.73
2017-04-30T13:10:37.684Z,13.71
2017-04-30T13:11:37.423Z,13.69